createdAt,value
2018-10-07T00:01:53.639Z,43.57
2018-10-07T00:06:02.187Z,45.83
2018-10-07T00:10:10.503Z,47.80
2018-10-07T00:14:18.757Z,47.67
2018-10-07T00:18:26.993Z,50.93
2018-10-07T00:22:35.483Z,54.27
2018-10-07T00:26:43.750Z,56.20
2018-10-07T00:30:52.149Z,56.00
2018-10-07T00:35:00.467Z,59.83
2018-10-07T00:39:10.208Z,56.87
2018-10-07T00:43:18.427Z,56.50
2018-10-07T00:47:26.765Z,60.57
2018-10-07T00:51:35.302Z,58.43
2018-10-07T00:55:43.584Z,58.90
2018-10-07T00:59:51.872Z,60.70
2018-10-07T01:04:00.138Z,59.10
2018-10-07T01:08:08.758Z,59.07
2018-10-07T01:12:16.996Z,61.43
2018-10-07T01:16:25.312Z,58.67
2018-10-07T01:20:33.969Z,57.60
2018-10-07T01:24:42.304Z,54.23
2018-10-07T01:28:50.534Z,53.20
2018-10-07T01:32:58.809Z,51.70
2018-10-07T01:37:07.323Z,52.00
2018-10-07T01:41:15.637Z,47.90
2018-10-07T01:45:23.996Z,47.70
2018-10-07T01:49:33.376Z,42.90
2018-10-07T01:53:41.676Z,44.57
2018-10-07T01:57:49.937Z,41.77
2018-10-07T02:01:58.192Z,40.37
2018-10-07T02:06:06.763Z,38.30
2018-10-07T02:10:15.018Z,36.90
2018-10-07T02:14:23.728Z,35.93
2018-10-07T02:18:32.372Z,34.53
2018-10-07T02:22:40.716Z,31.00
2018-10-07T02:26:48.992Z,28.73
2018-10-07T02:30:57.225Z,23.17
2018-10-07T02:35:05.817Z,21.70
2018-10-07T02:39:14.050Z,20.53
2018-10-07T02:43:22.467Z,19.47
2018-10-07T02:47:31.368Z,20.10
2018-10-07T02:51:39.713Z,16.27
2018-10-07T02:55:47.990Z,15.53
2018-10-07T02:59:56.428Z,16.93
2018-10-07T03:04:05.222Z,17.90
2018-10-07T03:08:13.516Z,16.20
2018-10-07T03:12:21.772Z,15.30
2018-10-07T03:16:30.033Z,15.17
2018-10-07T03:20:38.674Z,13.93
2018-10-07T03:24:46.948Z,10.70
2018-10-07T03:28:55.447Z,11.20
2018-10-07T03:33:03.759Z,10.07
2018-10-07T03:37:12.191Z,10.60
2018-10-07T03:41:20.420Z,10.10
2018-10-07T03:45:28.699Z,9.40
2018-10-07T03:49:37.636Z,8.73
2018-10-07T03:53:45.912Z,10.20
2018-10-07T03:57:54.174Z,8.43
2018-10-07T04:02:02.556Z,7.40
2018-10-07T04:06:11.036Z,6.85
2018-10-07T04:10:19.361Z,6.30
2018-10-07T04:14:27.633Z,6.87
2018-10-07T04:18:36.303Z,6.10
2018-10-07T04:22:44.627Z,6.60
2018-10-07T04:26:53.004Z,5.77
2018-10-07T04:31:01.277Z,6.63
2018-10-07T04:35:09.797Z,6.60
2018-10-07T04:39:18.064Z,6.53
2018-10-07T04:43:26.455Z,6.33
2018-10-07T04:47:34.936Z,7.13
2018-10-07T04:51:43.255Z,6.17
2018-10-07T04:55:51.508Z,5.50
2018-10-07T04:59:59.803Z,6.40
2018-10-07T05:04:08.487Z,5.53
2018-10-07T05:08:16.778Z,4.87
2018-10-07T05:12:25.239Z,4.60
2018-10-07T05:16:44.473Z,4.10
2018-10-07T05:20:53.238Z,4.50
2018-10-07T05:25:01.513Z,4.23
2018-10-07T05:29:10.057Z,3.77
2018-10-07T05:33:18.056Z,3.60
2018-10-07T05:37:26.486Z,3.80
2018-10-07T05:41:34.884Z,3.40
2018-10-07T05:45:43.248Z,3.57
2018-10-07T05:49:51.494Z,3.37
2018-10-07T05:53:59.945Z,3.13
2018-10-07T05:58:08.176Z,3.27
2018-10-07T06:02:16.864Z,3.13
2018-10-07T06:06:25.177Z,2.90
2018-10-07T06:10:33.514Z,3.20
2018-10-07T06:14:53.159Z,3.50
2018-10-07T06:19:01.093Z,2.80
2018-10-07T06:23:09.713Z,2.80
2018-10-07T06:27:17.995Z,2.55
2018-10-07T06:31:26.320Z,3.27
2018-10-07T06:35:34.915Z,2.53
2018-10-07T06:39:43.281Z,2.10
2018-10-07T06:43:51.589Z,2.03
2018-10-07T06:47:59.949Z,2.33
2018-10-07T06:52:08.534Z,2.30
2018-10-07T06:56:16.784Z,2.10
2018-10-07T07:00:25.379Z,2.17
2018-10-07T07:04:33.671Z,2.37
2018-10-07T07:08:42.011Z,2.07
2018-10-07T07:12:50.345Z,2.30
2018-10-07T07:16:58.557Z,2.00
2018-10-07T07:21:07.317Z,2.00
2018-10-07T07:25:15.621Z,1.90
2018-10-07T07:29:24.073Z,2.43
2018-10-07T07:33:32.340Z,2.17
2018-10-07T07:37:40.888Z,2.33
2018-10-07T07:41:49.157Z,1.70
2018-10-07T07:45:57.511Z,2.27
2018-10-07T07:50:06.463Z,2.00
2018-10-07T07:54:14.834Z,2.33
2018-10-07T07:58:23.155Z,2.50
2018-10-07T08:02:31.395Z,2.40
2018-10-07T08:06:40.142Z,1.97
2018-10-07T08:10:48.445Z,1.97
2018-10-07T08:14:56.936Z,2.40
2018-10-07T08:19:05.556Z,2.20
2018-10-07T08:23:13.888Z,1.93
2018-10-07T08:27:22.101Z,3.10
2018-10-07T08:31:30.379Z,2.63
2018-10-07T08:35:39.163Z,2.30
2018-10-07T08:39:47.395Z,2.20
2018-10-07T08:43:55.902Z,1.90
2018-10-07T08:48:04.357Z,1.73
2018-10-07T08:52:12.798Z,1.97
2018-10-07T08:56:21.065Z,1.97
2018-10-07T09:00:29.299Z,2.00
2018-10-07T09:04:37.596Z,2.07
2018-10-07T09:08:45.913Z,2.30
2018-10-07T09:12:54.291Z,2.07
2018-10-07T09:17:02.532Z,1.90
2018-10-07T09:21:10.936Z,2.13
2018-10-07T09:25:20.189Z,2.07
2018-10-07T09:29:28.489Z,2.13
2018-10-07T09:33:36.736Z,2.90
2018-10-07T09:37:45.102Z,2.00
2018-10-07T09:41:53.454Z,1.70
2018-10-07T09:46:01.728Z,2.00
2018-10-07T09:50:10.155Z,1.80
2018-10-07T09:54:18.872Z,1.67
2018-10-07T09:58:27.176Z,2.20
2018-10-07T10:02:35.469Z,1.77
2018-10-07T10:06:43.740Z,1.87
2018-10-07T10:10:52.204Z,1.80
2018-10-07T10:15:00.471Z,1.80
2018-10-07T10:19:11.532Z,2.23
2018-10-07T10:24:44.544Z,2.00
2018-10-07T10:29:10.936Z,1.80
2018-10-07T10:33:28.511Z,1.70
2018-10-07T10:37:38.761Z,1.60
2018-10-07T10:41:50.177Z,1.70
2018-10-07T10:46:03.570Z,2.20
2018-10-07T10:50:25.953Z,1.97
2018-10-07T10:54:39.596Z,2.08
2018-10-07T10:58:53.258Z,1.93
2018-10-07T11:03:16.466Z,2.30
2018-10-07T11:07:34.648Z,1.90
2018-10-07T11:11:51.225Z,2.00
2018-10-07T11:17:08.081Z,1.70
2018-10-07T11:23:30.525Z,1.60
2018-10-07T11:27:53.910Z,2.27
2018-10-07T11:32:07.939Z,2.00
2018-10-07T11:36:20.956Z,2.03
2018-10-07T11:42:41.045Z,1.80
2018-10-07T11:47:01.213Z,1.90
2018-10-07T11:52:18.269Z,2.03
2018-10-07T11:56:26.581Z,1.80
2018-10-07T12:00:34.832Z,2.23
2018-10-07T12:04:43.089Z,2.13
2018-10-07T12:08:51.692Z,1.93
2018-10-07T12:13:00.011Z,2.00
2018-10-07T12:17:09.119Z,1.53
2018-10-07T12:21:17.515Z,1.70
2018-10-07T12:25:25.907Z,1.90
2018-10-07T12:29:34.157Z,1.90
2018-10-07T12:33:42.463Z,1.90
2018-10-07T12:37:51.128Z,1.50
2018-10-07T12:41:59.413Z,2.07
2018-10-07T12:46:07.856Z,2.07
2018-10-07T12:50:16.154Z,2.10
2018-10-07T12:54:24.578Z,1.70
2018-10-07T12:58:32.806Z,1.80
2018-10-07T13:02:41.195Z,2.20
2018-10-07T13:06:49.736Z,1.90
2018-10-07T13:10:58.033Z,2.30
2018-10-07T13:15:06.291Z,1.93
2018-10-07T13:19:14.619Z,2.53
2018-10-07T13:23:23.071Z,1.63
2018-10-07T13:27:31.512Z,2.13
2018-10-07T13:31:40.120Z,1.90
2018-10-07T13:35:49.112Z,2.00
2018-10-07T13:39:57.512Z,2.07
2018-10-07T13:44:05.680Z,2.50
2018-10-07T13:48:13.949Z,1.87
2018-10-07T13:52:22.444Z,2.10
2018-10-07T13:56:30.656Z,1.90
2018-10-07T14:00:39.162Z,2.20
2018-10-07T14:04:47.571Z,1.73
2018-10-07T14:08:55.850Z,1.83
2018-10-07T14:13:04.101Z,1.90
2018-10-07T14:17:12.348Z,2.63
2018-10-07T14:21:20.947Z,2.07
2018-10-07T14:25:29.293Z,1.70
2018-10-07T14:29:37.621Z,2.13
2018-10-07T14:33:45.885Z,2.20
2018-10-07T14:37:54.242Z,2.20
2018-10-07T14:42:02.477Z,2.00
2018-10-07T14:46:10.761Z,2.27
2018-10-07T14:50:19.193Z,2.33
2018-10-07T14:54:27.465Z,1.70
2018-10-07T14:58:36.145Z,2.00
2018-10-07T15:02:44.685Z,1.83
2018-10-07T15:06:52.952Z,2.00
2018-10-07T15:11:01.440Z,1.90
2018-10-07T15:15:09.681Z,2.20
2018-10-07T15:19:18.041Z,2.27
2018-10-07T15:23:26.271Z,1.87
2018-10-07T15:27:34.557Z,2.37
2018-10-07T15:31:43.116Z,2.13
2018-10-07T15:35:51.370Z,1.97
2018-10-07T15:39:59.703Z,2.10
2018-10-07T15:44:07.955Z,2.30
2018-10-07T15:48:16.376Z,1.90
2018-10-07T15:52:24.632Z,1.70
2018-10-07T15:56:33.024Z,2.20
2018-10-07T16:00:41.385Z,2.13
2018-10-07T16:04:49.404Z,2.20
2018-10-07T16:08:57.733Z,2.07
2018-10-07T16:13:06.011Z,2.13
2018-10-07T16:17:14.360Z,2.50
2018-10-07T16:21:22.621Z,2.20
2018-10-07T16:25:30.951Z,2.33
2018-10-07T16:29:39.200Z,2.10
2018-10-07T16:33:47.682Z,2.33
2018-10-07T16:37:55.904Z,2.10
2018-10-07T16:42:04.341Z,2.10
2018-10-07T16:46:12.715Z,2.00
2018-10-07T16:50:20.912Z,2.30
2018-10-07T16:54:29.283Z,2.20
2018-10-07T16:58:37.558Z,2.50
2018-10-07T17:02:46.026Z,2.33
2018-10-07T17:06:54.247Z,2.03
2018-10-07T17:11:02.631Z,2.20
2018-10-07T17:15:10.895Z,2.40
2018-10-07T17:19:19.236Z,2.83
2018-10-07T17:23:27.508Z,2.47
2018-10-07T17:27:35.761Z,2.27
2018-10-07T17:31:44.150Z,2.80
2018-10-07T17:35:52.440Z,3.22
2018-10-07T17:40:00.750Z,3.33
2018-10-07T17:44:09.185Z,3.17
2018-10-07T17:48:17.767Z,3.50
2018-10-07T17:52:25.921Z,4.20
2018-10-07T17:56:33.961Z,3.80
2018-10-07T18:00:42.874Z,5.20
2018-10-07T18:04:51.114Z,4.87
2018-10-07T18:08:59.412Z,4.30
2018-10-07T18:13:07.681Z,4.63
2018-10-07T18:17:16.121Z,4.23
2018-10-07T18:21:24.140Z,4.80
2018-10-07T18:25:32.554Z,4.80
2018-10-07T18:29:41.115Z,4.40
2018-10-07T18:33:49.368Z,3.73
2018-10-07T18:37:57.626Z,3.60
2018-10-07T18:42:05.911Z,3.10
2018-10-07T18:46:14.555Z,3.20
2018-10-07T18:50:22.826Z,4.20
2018-10-07T18:54:31.245Z,4.33
2018-10-07T18:58:39.448Z,5.07
2018-10-07T19:02:47.758Z,5.80
2018-10-07T19:06:55.997Z,5.50
2018-10-07T19:11:04.393Z,4.87
2018-10-07T19:15:12.968Z,4.85
2018-10-07T19:19:21.297Z,5.70
2018-10-07T19:23:29.551Z,5.27
2018-10-07T19:27:37.883Z,5.20
2018-10-07T19:31:46.416Z,5.90
2018-10-07T19:35:54.775Z,5.65
2018-10-07T19:40:03.224Z,5.00
2018-10-07T19:44:11.623Z,5.10
2018-10-07T19:48:19.853Z,5.07
2018-10-07T19:52:28.179Z,5.70
2018-10-07T19:56:36.325Z,4.93
2018-10-07T20:00:45.131Z,4.40
2018-10-07T20:04:53.365Z,5.42
2018-10-07T20:09:01.737Z,5.53
2018-10-07T20:13:09.999Z,5.27
2018-10-07T20:17:18.349Z,4.53
2018-10-07T20:21:26.641Z,4.80
2018-10-07T20:25:34.906Z,5.10
2018-10-07T20:29:43.358Z,5.30
2018-10-07T20:33:51.741Z,5.10
2018-10-07T20:38:00.017Z,4.70
2018-10-07T20:42:08.283Z,5.57
2018-10-07T20:46:16.748Z,5.03
2018-10-07T20:50:25.339Z,5.00
2018-10-07T20:54:33.365Z,4.60
2018-10-07T20:58:41.729Z,4.80
2018-10-07T21:02:50.117Z,5.00
2018-10-07T21:06:58.399Z,5.50
2018-10-07T21:11:06.771Z,5.10
2018-10-07T21:15:15.393Z,5.37
2018-10-07T21:19:23.642Z,5.57
2018-10-07T21:23:31.899Z,5.93
2018-10-07T21:27:40.283Z,5.03
2018-10-07T21:31:48.758Z,5.03
2018-10-07T21:35:57.043Z,5.40
2018-10-07T21:40:05.280Z,6.07
2018-10-07T21:44:13.681Z,5.87
2018-10-07T21:48:21.959Z,5.17
2018-10-07T21:52:30.294Z,4.90
2018-10-07T21:56:38.516Z,5.90
2018-10-07T22:00:47.033Z,5.50
2018-10-07T22:04:55.323Z,5.40
2018-10-07T22:09:04.331Z,5.60
2018-10-07T22:13:13.090Z,5.63
2018-10-07T22:17:21.366Z,5.50
2018-10-07T22:21:29.637Z,6.07
2018-10-07T22:25:37.917Z,6.03
2018-10-07T22:29:46.415Z,5.53
2018-10-07T22:33:54.672Z,5.40
2018-10-07T22:38:03.182Z,5.80
2018-10-07T22:42:11.436Z,5.90
2018-10-07T22:46:20.218Z,5.90
2018-10-07T22:50:28.508Z,5.40
2018-10-07T22:54:36.771Z,6.00
2018-10-07T22:58:45.284Z,6.30
2018-10-07T23:02:53.522Z,6.43
2018-10-07T23:07:01.837Z,5.37
2018-10-07T23:11:10.125Z,6.13
2018-10-07T23:15:18.564Z,7.30
2018-10-07T23:19:26.828Z,6.67
2018-10-07T23:23:35.309Z,5.90
2018-10-07T23:27:43.795Z,5.80
2018-10-07T23:31:51.799Z,5.63
2018-10-07T23:36:00.070Z,5.67
2018-10-07T23:40:09.580Z,5.87
2018-10-07T23:44:17.975Z,6.60
2018-10-07T23:48:26.244Z,6.50
2018-10-07T23:52:34.608Z,5.90
2018-10-07T23:56:43.124Z,6.30
